Time;durP1;ratioP1;P1;durP2;ratioP2;P2;SDS_P1;SDS_P2;PMS_P1;PMS_P2;Temp;Humidity;BMP_temperature;BMP_pressure;BME280_temperature;BME280_humidity;BME280_pressure;Samples;Min_cycle;Max_cycle;Signal;HPM_P1;HPM_P2
2022/11/28 00:01:33;;;;;;;;;;;10.40;99.90;;;;;;7340339;19;109801;-73
2022/11/28 00:04:00;;;;;;;;;;;10.50;99.90;;;;;;7343634;19;109573;-72
2022/11/28 00:06:27;;;;;;;;;;;10.50;99.90;;;;;;7337887;19;108600;-73
2022/11/28 00:08:56;;;;;;;;;;;10.50;99.90;;;;;;7340887;19;109103;-72
2022/11/28 00:11:23;;;;;;;;;;;10.50;99.90;;;;;;7340000;19;108773;-71
2022/11/28 00:13:50;;;;;;;;;;;10.50;99.90;;;;;;7339450;19;108957;-71
2022/11/28 00:16:21;;;;;;;;;;;10.50;99.90;;;;;;7338292;19;110218;-72
2022/11/28 00:18:49;;;;;;;;;;;10.50;99.90;;;;;;7342173;19;108486;-71
2022/11/28 00:21:16;;;;;;;;;;;10.50;99.90;;;;;;7341698;19;109123;-72
2022/11/28 00:23:44;;;;;;;;;;;10.50;99.90;;;;;;7340172;19;111086;-71
2022/11/28 00:26:16;;;;;;;;;;;10.50;99.90;;;;;;7342462;19;108736;-70
2022/11/28 00:28:43;;;;;;;;;;;10.50;99.90;;;;;;7340237;19;110392;-71
2022/11/28 00:31:18;;;;;;;;;;;10.50;99.90;;;;;;7339724;19;113319;-70
2022/11/28 00:33:45;;;;;;;;;;;10.50;99.90;;;;;;7340183;19;110066;-71
2022/11/28 00:36:12;;;;;;;;;;;10.50;99.90;;;;;;7338108;19;110392;-70
2022/11/28 00:38:39;;;;;;;;;;;10.50;99.90;;;;;;7340312;19;108904;-71
2022/11/28 00:41:08;;;;;;;;;;;10.50;99.90;;;;;;7337784;19;112119;-71
2022/11/28 00:43:35;;;;;;;;;;;10.50;99.90;;;;;;7340798;19;110277;-72
2022/11/28 00:46:02;;;;;;;;;;;10.50;99.90;;;;;;7337020;19;109546;-71
2022/11/28 00:48:30;;;;;;;;;;;10.50;99.90;;;;;;7344972;19;110208;-70
2022/11/28 00:51:04;;;;;;;;;;;10.50;99.90;;;;;;7339593;19;108351;-71
2022/11/28 00:53:31;;;;;;;;;;;10.50;99.90;;;;;;7338567;19;109625;-71
2022/11/28 00:55:58;;;;;;;;;;;10.50;99.90;;;;;;7338002;19;110220;-71
2022/11/28 00:58:25;;;;;;;;;;;10.50;99.90;;;;;;7337868;19;110110;-71
2022/11/28 01:00:52;;;;;;;;;;;10.40;99.90;;;;;;7339659;19;108886;-71
2022/11/28 01:03:19;;;;;;;;;;;10.40;99.90;;;;;;7337977;19;110553;-71
2022/11/28 01:05:46;;;;;;;;;;;10.40;99.90;;;;;;7338691;19;108928;-71
2022/11/28 01:08:13;;;;;;;;;;;10.50;99.90;;;;;;7338328;19;109489;-71
2022/11/28 01:10:41;;;;;;;;;;;10.40;99.90;;;;;;7344857;19;109518;-72
2022/11/28 01:13:08;;;;;;;;;;;10.40;99.90;;;;;;7336592;19;109360;-72
2022/11/28 01:15:36;;;;;;;;;;;10.40;99.90;;;;;;7338174;19;109740;-71
2022/11/28 01:18:03;;;;;;;;;;;10.40;99.90;;;;;;7340660;19;108678;-71
2022/11/28 01:20:30;;;;;;;;;;;10.40;99.90;;;;;;7339341;19;112636;-71
2022/11/28 01:22:56;;;;;;;;;;;10.40;99.90;;;;;;7337578;19;109992;-71
2022/11/28 01:25:26;;;;;;;;;;;10.40;99.90;;;;;;7336716;19;109080;-71
2022/11/28 01:27:53;;;;;;;;;;;10.40;99.90;;;;;;7339027;19;109449;-72
2022/11/28 01:30:20;;;;;;;;;;;10.30;99.90;;;;;;7334978;19;110907;-72
2022/11/28 01:32:47;;;;;;;;;;;10.30;99.90;;;;;;7342046;19;109573;-71
2022/11/28 01:35:14;;;;;;;;;;;10.30;99.90;;;;;;7336556;19;109244;-71
2022/11/28 01:37:40;;;;;;;;;;;10.30;99.90;;;;;;7338793;19;109258;-71
2022/11/28 01:40:09;;;;;;;;;;;10.30;99.90;;;;;;7340263;19;109186;-71
2022/11/28 01:42:36;;;;;;;;;;;10.30;99.90;;;;;;7335150;19;111213;-71
2022/11/28 01:45:05;;;;;;;;;;;10.30;99.90;;;;;;7338449;19;108828;-71
2022/11/28 01:47:33;;;;;;;;;;;10.30;99.90;;;;;;7336095;19;108385;-71
2022/11/28 01:50:00;;;;;;;;;;;10.30;99.90;;;;;;7338872;19;111445;-71
2022/11/28 01:52:27;;;;;;;;;;;10.20;99.90;;;;;;7341286;19;109017;-71
2022/11/28 01:54:56;;;;;;;;;;;10.30;99.90;;;;;;7337557;19;110801;-71
2022/11/28 01:57:24;;;;;;;;;;;10.20;99.90;;;;;;7333202;19;108517;-71
2022/11/28 01:59:54;;;;;;;;;;;10.20;99.90;;;;;;7337421;19;109702;-71
2022/11/28 02:02:44;;;;;;;;;;;10.20;99.90;;;;;;7335900;19;110246;-71
2022/11/28 02:05:12;;;;;;;;;;;10.20;99.90;;;;;;7336015;19;109071;-71
2022/11/28 02:07:43;;;;;;;;;;;10.20;99.90;;;;;;7336049;19;119366;-71
2022/11/28 02:10:13;;;;;;;;;;;10.20;99.90;;;;;;7335417;19;109395;-71
2022/11/28 02:13:00;;;;;;;;;;;10.20;99.90;;;;;;7337356;19;112228;-71
2022/11/28 02:15:31;;;;;;;;;;;10.20;99.90;;;;;;7341959;19;112145;-71
2022/11/28 02:18:17;;;;;;;;;;;10.20;99.90;;;;;;7337272;19;108830;-71
2022/11/28 02:20:57;;;;;;;;;;;10.20;99.90;;;;;;7334531;19;109090;-71
2022/11/28 02:23:24;;;;;;;;;;;10.20;99.90;;;;;;7335617;19;110006;-71
2022/11/28 02:25:54;;;;;;;;;;;10.20;99.90;;;;;;7336197;19;108413;-71
2022/11/28 02:28:30;;;;;;;;;;;10.20;99.90;;;;;;7337616;19;109598;-71
2022/11/28 02:31:03;;;;;;;;;;;10.20;99.90;;;;;;7335835;19;110748;-71
2022/11/28 02:33:34;;;;;;;;;;;10.10;99.90;;;;;;7337157;19;109839;-71
2022/11/28 02:36:24;;;;;;;;;;;10.10;99.90;;;;;;7336883;19;111543;-71
2022/11/28 02:39:06;;;;;;;;;;;10.10;99.90;;;;;;7338746;19;110584;-71
2022/11/28 02:41:44;;;;;;;;;;;10.10;99.90;;;;;;7334251;19;109507;-71
2022/11/28 02:44:16;;;;;;;;;;;10.10;99.90;;;;;;7335156;19;111014;-71
2022/11/28 02:46:46;;;;;;;;;;;10.10;99.90;;;;;;7336086;19;109139;-71
2022/11/28 02:49:16;;;;;;;;;;;10.10;99.90;;;;;;7332393;19;109832;-71
2022/11/28 02:51:50;;;;;;;;;;;10.10;99.90;;;;;;7335007;19;109109;-71
2022/11/28 02:54:19;;;;;;;;;;;10.10;99.90;;;;;;7335171;19;109003;-71
2022/11/28 02:56:47;;;;;;;;;;;10.10;99.90;;;;;;7336226;19;110087;-71
2022/11/28 02:59:28;;;;;;;;;;;10.10;99.90;;;;;;7335876;19;109763;-71
2022/11/28 03:01:55;;;;;;;;;;;10.10;99.90;;;;;;7342561;19;108707;-71
2022/11/28 03:04:26;;;;;;;;;;;10.10;99.90;;;;;;7334654;19;108826;-71
2022/11/28 03:07:01;;;;;;;;;;;10.10;99.90;;;;;;7335707;19;108365;-71
2022/11/28 03:09:46;;;;;;;;;;;10.10;99.90;;;;;;7340266;19;109123;-71
2022/11/28 03:12:24;;;;;;;;;;;10.10;99.90;;;;;;7340368;19;110558;-71
2022/11/28 03:14:56;;;;;;;;;;;10.10;99.90;;;;;;7342062;19;108604;-72
2022/11/28 03:17:34;;;;;;;;;;;10.10;99.90;;;;;;7340898;19;109441;-71
2022/11/28 03:20:01;;;;;;;;;;;10.10;99.90;;;;;;7341195;19;110301;-72
2022/11/28 03:22:51;;;;;;;;;;;10.10;99.90;;;;;;7340948;19;108463;-72
2022/11/28 03:25:32;;;;;;;;;;;10.10;99.90;;;;;;7342529;19;110317;-72
2022/11/28 03:28:05;;;;;;;;;;;10.10;99.90;;;;;;7337316;19;108870;-72
2022/11/28 03:30:38;;;;;;;;;;;10.10;99.90;;;;;;7337661;19;111169;-72
2022/11/28 03:33:05;;;;;;;;;;;10.10;99.90;;;;;;7336462;19;110321;-71
2022/11/28 03:35:35;;;;;;;;;;;10.10;99.90;;;;;;7338242;19;108416;-72
2022/11/28 03:38:08;;;;;;;;;;;10.10;99.90;;;;;;7336404;19;108638;-72
2022/11/28 03:40:38;;;;;;;;;;;10.10;99.90;;;;;;7338004;19;109201;-71
2022/11/28 03:43:09;;;;;;;;;;;10.10;99.90;;;;;;7336252;19;109274;-71
2022/11/28 03:45:56;;;;;;;;;;;10.10;99.90;;;;;;7342358;19;108825;-72
2022/11/28 03:48:28;;;;;;;;;;;10.10;99.90;;;;;;7337274;19;108953;-72
2022/11/28 03:51:04;;;;;;;;;;;10.10;99.90;;;;;;7340329;19;109138;-72
2022/11/28 03:53:37;;;;;;;;;;;10.10;99.90;;;;;;7338993;19;111156;-71
2022/11/28 03:56:10;;;;;;;;;;;10.10;99.90;;;;;;7337557;19;108648;-71
2022/11/28 03:58:42;;;;;;;;;;;10.10;99.90;;;;;;7336116;19;109522;-70
2022/11/28 04:01:15;;;;;;;;;;;10.10;99.90;;;;;;7334740;19;109820;-70
2022/11/28 04:03:51;;;;;;;;;;;10.10;99.90;;;;;;7338835;19;108643;-70
2022/11/28 04:06:23;;;;;;;;;;;10.10;99.90;;;;;;7340679;19;109251;-70
2022/11/28 04:09:01;;;;;;;;;;;10.00;99.90;;;;;;7345438;19;110229;-70
2022/11/28 04:11:41;;;;;;;;;;;10.10;99.90;;;;;;7340215;19;109221;-70
2022/11/28 04:14:11;;;;;;;;;;;10.10;99.90;;;;;;7339449;19;110128;-70
2022/11/28 04:16:47;;;;;;;;;;;10.10;99.90;;;;;;7342964;19;108390;-70
2022/11/28 04:19:19;;;;;;;;;;;10.10;99.90;;;;;;7340957;19;109547;-70
2022/11/28 04:22:03;;;;;;;;;;;10.10;99.90;;;;;;7341021;19;109567;-70
2022/11/28 04:24:33;;;;;;;;;;;10.10;99.90;;;;;;7339978;19;108453;-70
2022/11/28 04:27:02;;;;;;;;;;;10.10;99.90;;;;;;7339964;19;108732;-70
2022/11/28 04:29:51;;;;;;;;;;;10.10;99.90;;;;;;7339226;19;109804;-70
2022/11/28 04:32:19;;;;;;;;;;;10.10;99.90;;;;;;7346029;19;109304;-70
2022/11/28 04:34:48;;;;;;;;;;;10.10;99.90;;;;;;7341845;19;110489;-70
2022/11/28 04:37:16;;;;;;;;;;;10.10;99.90;;;;;;7341026;19;109521;-70
2022/11/28 04:39:46;;;;;;;;;;;10.10;99.90;;;;;;7341060;19;109603;-70
2022/11/28 04:42:15;;;;;;;;;;;10.10;99.90;;;;;;7337530;19;110702;-70
2022/11/28 04:45:08;;;;;;;;;;;10.10;99.90;;;;;;7341897;19;109139;-70
2022/11/28 04:47:35;;;;;;;;;;;10.10;99.90;;;;;;7340828;19;109378;-70
2022/11/28 04:50:03;;;;;;;;;;;10.10;99.90;;;;;;7339398;19;109204;-70
2022/11/28 04:52:37;;;;;;;;;;;10.10;99.90;;;;;;7340467;19;108452;-70
2022/11/28 04:55:08;;;;;;;;;;;10.10;99.90;;;;;;7344960;19;109195;-70
2022/11/28 04:57:37;;;;;;;;;;;10.10;99.90;;;;;;7339079;19;108802;-71
2022/11/28 05:00:06;;;;;;;;;;;10.20;99.90;;;;;;7337894;19;110182;-70
2022/11/28 05:02:34;;;;;;;;;;;10.10;99.90;;;;;;7340460;19;110145;-70
2022/11/28 05:05:05;;;;;;;;;;;10.10;99.90;;;;;;7340558;19;108789;-70
2022/11/28 05:07:32;;;;;;;;;;;10.10;99.90;;;;;;7340398;19;108744;-70
2022/11/28 05:09:59;;;;;;;;;;;10.10;99.90;;;;;;7339397;19;109186;-70
2022/11/28 05:12:26;;;;;;;;;;;10.10;99.90;;;;;;7337144;19;109350;-70
2022/11/28 05:14:53;;;;;;;;;;;10.10;99.90;;;;;;7338942;19;112071;-70
2022/11/28 05:17:20;;;;;;;;;;;10.10;99.90;;;;;;7339096;19;111932;-70
2022/11/28 05:19:46;;;;;;;;;;;10.10;99.90;;;;;;7340198;19;109560;-70
2022/11/28 05:22:13;;;;;;;;;;;10.10;99.90;;;;;;7337541;19;109664;-70
2022/11/28 05:24:40;;;;;;;;;;;10.10;99.90;;;;;;7339811;19;108924;-70
2022/11/28 05:27:07;;;;;;;;;;;10.10;99.90;;;;;;7337744;19;109597;-70
2022/11/28 05:29:34;;;;;;;;;;;10.10;99.90;;;;;;7338314;19;109555;-70
2022/11/28 05:32:01;;;;;;;;;;;10.10;99.90;;;;;;7331127;19;108733;-70
2022/11/28 05:34:29;;;;;;;;;;;10.10;99.90;;;;;;7331991;19;108690;-70
2022/11/28 05:36:57;;;;;;;;;;;10.20;99.90;;;;;;7339002;19;110267;-70
2022/11/28 05:39:24;;;;;;;;;;;10.20;99.90;;;;;;7345610;19;108652;-70
2022/11/28 05:41:53;;;;;;;;;;;10.20;99.90;;;;;;7336624;19;110733;-71
2022/11/28 05:44:20;;;;;;;;;;;10.20;99.90;;;;;;7336083;19;109548;-70
2022/11/28 05:46:52;;;;;;;;;;;10.20;99.90;;;;;;7339067;19;109109;-70
2022/11/28 05:49:24;;;;;;;;;;;10.10;99.90;;;;;;7334280;19;110877;-70
2022/11/28 05:51:51;;;;;;;;;;;10.10;99.90;;;;;;7338943;19;108352;-71
2022/11/28 05:54:18;;;;;;;;;;;10.10;99.90;;;;;;7337398;19;108570;-71
2022/11/28 05:56:45;;;;;;;;;;;10.10;99.90;;;;;;7337903;19;114691;-70
2022/11/28 05:59:12;;;;;;;;;;;10.20;99.90;;;;;;7344626;19;108726;-69
2022/11/28 06:01:39;;;;;;;;;;;10.10;99.90;;;;;;7339949;19;110354;-70
2022/11/28 06:04:06;;;;;;;;;;;10.20;99.90;;;;;;7337475;19;108277;-69
2022/11/28 06:06:34;;;;;;;;;;;10.20;99.90;;;;;;7338831;19;109260;-71
2022/11/28 06:09:01;;;;;;;;;;;10.10;99.90;;;;;;7337769;19;109328;-69
2022/11/28 06:11:29;;;;;;;;;;;10.20;99.90;;;;;;7335955;19;109967;-70
2022/11/28 06:14:00;;;;;;;;;;;10.20;99.90;;;;;;7336653;19;109210;-69
2022/11/28 06:16:28;;;;;;;;;;;10.20;99.90;;;;;;7336446;19;110381;-69
2022/11/28 06:18:56;;;;;;;;;;;10.20;99.90;;;;;;7335432;19;112866;-69
2022/11/28 06:21:23;;;;;;;;;;;10.20;99.90;;;;;;7339471;19;108856;-69
2022/11/28 06:23:50;;;;;;;;;;;10.20;99.90;;;;;;7338887;19;108429;-69
2022/11/28 06:26:19;;;;;;;;;;;10.20;99.90;;;;;;7336031;19;108226;-70
2022/11/28 06:28:47;;;;;;;;;;;10.20;99.90;;;;;;7331920;19;110191;-70
2022/11/28 06:31:15;;;;;;;;;;;10.20;99.90;;;;;;7337133;19;108972;-70
2022/11/28 06:33:42;;;;;;;;;;;10.20;99.90;;;;;;7338274;19;108421;-69
2022/11/28 06:36:10;;;;;;;;;;;10.20;99.90;;;;;;7336146;19;110034;-69
2022/11/28 06:38:36;;;;;;;;;;;10.20;99.90;;;;;;7337385;19;108695;-69
2022/11/28 06:41:09;;;;;;;;;;;10.20;99.90;;;;;;7336991;19;109450;-70
2022/11/28 06:43:36;;;;;;;;;;;10.20;99.90;;;;;;7346606;19;109672;-70
2022/11/28 06:46:03;;;;;;;;;;;10.20;99.90;;;;;;7342200;19;109491;-69
2022/11/28 06:48:30;;;;;;;;;;;10.20;99.90;;;;;;7343470;19;116115;-69
2022/11/28 06:51:03;;;;;;;;;;;10.20;99.90;;;;;;7344972;19;109372;-69
2022/11/28 06:53:30;;;;;;;;;;;10.20;99.90;;;;;;7344054;19;109127;-69
2022/11/28 06:56:03;;;;;;;;;;;10.20;99.90;;;;;;7342039;19;109264;-69
2022/11/28 06:58:29;;;;;;;;;;;10.20;99.90;;;;;;7341729;19;108846;-69
2022/11/28 07:00:56;;;;;;;;;;;10.20;99.90;;;;;;7343030;19;109556;-69
2022/11/28 07:03:23;;;;;;;;;;;10.20;99.90;;;;;;7342039;19;109116;-69
2022/11/28 07:05:50;;;;;;;;;;;10.20;99.90;;;;;;7347824;19;109529;-69
2022/11/28 07:08:17;;;;;;;;;;;10.30;99.90;;;;;;7342527;19;110271;-69
2022/11/28 07:10:44;;;;;;;;;;;10.30;99.90;;;;;;7345251;19;109050;-69
2022/11/28 07:13:11;;;;;;;;;;;10.20;99.90;;;;;;7341153;19;109241;-69
2022/11/28 07:15:38;;;;;;;;;;;10.30;99.90;;;;;;7341643;19;109378;-69
2022/11/28 07:18:05;;;;;;;;;;;10.30;99.90;;;;;;7341896;19;108556;-69
2022/11/28 07:20:32;;;;;;;;;;;10.30;99.90;;;;;;7336355;19;109776;-69
2022/11/28 07:22:58;;;;;;;;;;;10.30;99.90;;;;;;7339560;19;110369;-69
2022/11/28 07:25:25;;;;;;;;;;;10.30;99.90;;;;;;7340853;19;109219;-69
2022/11/28 07:27:52;;;;;;;;;;;10.30;99.90;;;;;;7345439;19;109589;-69
2022/11/28 07:30:19;;;;;;;;;;;10.30;99.90;;;;;;7339539;19;108422;-69
2022/11/28 07:32:46;;;;;;;;;;;10.30;99.90;;;;;;7341021;19;109045;-69
2022/11/28 07:35:13;;;;;;;;;;;10.30;99.90;;;;;;7339199;19;109523;-69
2022/11/28 07:37:39;;;;;;;;;;;10.30;99.90;;;;;;7343984;19;108623;-69
2022/11/28 07:40:07;;;;;;;;;;;10.30;99.90;;;;;;7339968;19;108774;-70
2022/11/28 07:42:34;;;;;;;;;;;10.30;99.90;;;;;;7340089;19;109683;-69
2022/11/28 07:45:01;;;;;;;;;;;10.30;99.90;;;;;;7341390;19;108726;-69
2022/11/28 07:47:28;;;;;;;;;;;10.40;99.90;;;;;;7343068;19;108961;-69
2022/11/28 07:49:55;;;;;;;;;;;10.40;99.90;;;;;;7346203;19;111640;-69
2022/11/28 07:52:21;;;;;;;;;;;10.40;99.90;;;;;;7341140;19;109297;-69
2022/11/28 07:54:48;;;;;;;;;;;10.40;99.90;;;;;;7336880;19;109195;-70
2022/11/28 07:57:16;;;;;;;;;;;10.40;99.90;;;;;;7339604;19;108499;-69
2022/11/28 07:59:46;;;;;;;;;;;10.40;99.90;;;;;;7337675;19;109103;-70
2022/11/28 08:02:13;;;;;;;;;;;10.40;99.90;;;;;;7333471;19;110573;-70
2022/11/28 08:04:40;;;;;;;;;;;10.40;99.90;;;;;;7338778;19;111468;-69
2022/11/28 08:07:16;;;;;;;;;;;10.40;99.90;;;;;;7340842;19;109740;-69
2022/11/28 08:09:43;;;;;;;;;;;10.40;99.90;;;;;;7344320;19;110651;-69
2022/11/28 08:12:10;;;;;;;;;;;10.40;99.90;;;;;;7339609;19;109117;-70
2022/11/28 08:14:37;;;;;;;;;;;10.50;99.90;;;;;;7341586;19;109357;-69
2022/11/28 08:17:04;;;;;;;;;;;10.50;99.90;;;;;;7341477;19;108506;-70
2022/11/28 08:19:31;;;;;;;;;;;10.50;99.90;;;;;;7342167;19;109348;-69
2022/11/28 08:22:01;;;;;;;;;;;10.50;99.90;;;;;;7338636;19;110506;-70
2022/11/28 08:24:28;;;;;;;;;;;10.50;99.90;;;;;;7338231;19;108746;-69
2022/11/28 08:26:55;;;;;;;;;;;10.50;99.90;;;;;;7340619;19;108586;-69
2022/11/28 08:29:22;;;;;;;;;;;10.50;99.90;;;;;;7341305;19;111127;-69
2022/11/28 08:31:49;;;;;;;;;;;10.50;99.90;;;;;;7346433;19;109198;-69
2022/11/28 08:34:16;;;;;;;;;;;10.50;99.90;;;;;;7339991;19;110370;-69
2022/11/28 08:36:43;;;;;;;;;;;10.60;99.90;;;;;;7340774;19;108410;-69
2022/11/28 08:39:11;;;;;;;;;;;10.60;99.90;;;;;;7330565;19;111758;-69
2022/11/28 08:41:57;;;;;;;;;;;10.60;99.90;;;;;;7328216;19;110186;-70
2022/11/28 08:44:25;;;;;;;;;;;10.60;99.90;;;;;;7333948;19;108508;-70
2022/11/28 08:46:53;;;;;;;;;;;10.60;99.90;;;;;;7331303;19;109165;-69
2022/11/28 08:49:20;;;;;;;;;;;10.70;99.90;;;;;;7332305;19;110192;-70
2022/11/28 08:51:46;;;;;;;;;;;10.70;99.90;;;;;;7332674;19;108816;-69
2022/11/28 08:54:13;;;;;;;;;;;10.70;99.90;;;;;;7337286;19;109730;-70
2022/11/28 08:56:40;;;;;;;;;;;10.70;99.90;;;;;;7339698;19;108778;-69
2022/11/28 08:59:08;;;;;;;;;;;10.70;99.90;;;;;;7339384;19;110050;-70
2022/11/28 09:01:35;;;;;;;;;;;10.70;99.90;;;;;;7336947;19;111614;-69
2022/11/28 09:04:02;;;;;;;;;;;10.70;99.90;;;;;;7332209;19;109549;-71
2022/11/28 09:06:29;;;;;;;;;;;10.70;99.90;;;;;;7330927;19;113081;-70
2022/11/28 09:08:56;;;;;;;;;;;10.80;99.90;;;;;;7331477;19;110269;-69
2022/11/28 09:11:23;;;;;;;;;;;10.70;99.90;;;;;;7329106;19;109385;-70
2022/11/28 09:13:50;;;;;;;;;;;10.80;99.90;;;;;;7335945;19;109329;-70
2022/11/28 09:16:17;;;;;;;;;;;10.70;99.90;;;;;;7340945;19;109114;-69
2022/11/28 09:18:44;;;;;;;;;;;10.70;99.90;;;;;;7336990;19;109524;-69
2022/11/28 09:21:12;;;;;;;;;;;10.80;99.90;;;;;;7336325;19;109626;-71
2022/11/28 09:23:40;;;;;;;;;;;10.70;99.90;;;;;;7336728;19;108773;-69
2022/11/28 09:26:08;;;;;;;;;;;10.70;99.90;;;;;;7337501;19;108890;-69
2022/11/28 09:28:35;;;;;;;;;;;10.80;99.90;;;;;;7336605;19;110076;-70
2022/11/28 09:31:03;;;;;;;;;;;10.80;99.90;;;;;;7337192;19;108375;-70
2022/11/28 09:33:30;;;;;;;;;;;10.80;99.90;;;;;;7339371;19;109449;-70
2022/11/28 09:35:57;;;;;;;;;;;10.90;99.90;;;;;;7338098;19;108925;-70
2022/11/28 09:38:24;;;;;;;;;;;10.90;99.90;;;;;;7340796;19;108630;-70
2022/11/28 09:40:51;;;;;;;;;;;10.90;99.90;;;;;;7337007;19;109825;-70
2022/11/28 09:43:22;;;;;;;;;;;10.90;99.90;;;;;;7335911;19;109084;-70
2022/11/28 09:45:51;;;;;;;;;;;11.00;99.90;;;;;;7339436;19;109280;-70
2022/11/28 09:48:29;;;;;;;;;;;11.00;99.90;;;;;;7336278;19;110481;-71
2022/11/28 09:51:02;;;;;;;;;;;11.10;99.90;;;;;;7336359;19;110041;-70
2022/11/28 09:53:38;;;;;;;;;;;11.10;99.90;;;;;;7335822;19;110181;-71
2022/11/28 09:56:10;;;;;;;;;;;11.20;99.90;;;;;;7336714;19;111404;-72
2022/11/28 09:58:44;;;;;;;;;;;11.20;99.90;;;;;;7338757;19;108652;-76
2022/11/28 10:01:29;;;;;;;;;;;11.20;99.90;;;;;;7341988;19;108925;-75
2022/11/28 10:04:05;;;;;;;;;;;11.20;99.90;;;;;;7339356;19;108932;-76
2022/11/28 10:06:38;;;;;;;;;;;11.30;99.90;;;;;;7336176;19;111060;-74
2022/11/28 10:09:05;;;;;;;;;;;11.30;99.90;;;;;;7333425;19;113616;-70
2022/11/28 10:11:41;;;;;;;;;;;11.30;99.90;;;;;;7340446;19;109324;-76
2022/11/28 10:14:20;;;;;;;;;;;11.30;99.90;;;;;;7340331;19;109067;-76
2022/11/28 10:17:03;;;;;;;;;;;11.30;99.90;;;;;;7334910;19;110241;-72
2022/11/28 10:19:40;;;;;;;;;;;11.30;99.90;;;;;;7337748;19;108793;-70
2022/11/28 10:22:45;;;;;;;;;;;11.30;99.90;;;;;;7341976;19;108852;-70
2022/11/28 10:25:16;;;;;;;;;;;11.30;99.90;;;;;;7335498;19;109150;-70
2022/11/28 10:27:44;;;;;;;;;;;11.30;99.90;;;;;;7335856;19;109212;-71
2022/11/28 10:30:32;;;;;;;;;;;11.30;99.90;;;;;;7331436;19;110695;-73
2022/11/28 10:33:01;;;;;;;;;;;11.30;99.90;;;;;;7335988;19;108837;-71
2022/11/28 10:35:39;;;;;;;;;;;11.30;99.90;;;;;;7335235;19;109100;-70
2022/11/28 10:38:11;;;;;;;;;;;11.30;99.90;;;;;;7336419;19;110474;-70
2022/11/28 10:40:38;;;;;;;;;;;11.30;99.90;;;;;;7336807;19;109292;-70
2022/11/28 10:43:10;;;;;;;;;;;11.30;99.90;;;;;;7336367;19;111884;-70
2022/11/28 10:45:47;;;;;;;;;;;11.40;99.90;;;;;;7341435;19;109663;-70
2022/11/28 10:48:26;;;;;;;;;;;11.40;99.90;;;;;;7334580;19;109007;-70
2022/11/28 10:51:11;;;;;;;;;;;11.40;99.90;;;;;;7335826;19;110322;-70
2022/11/28 10:53:57;;;;;;;;;;;11.50;99.90;;;;;;7335099;19;111793;-70
2022/11/28 10:56:24;;;;;;;;;;;11.50;99.90;;;;;;7335179;19;110628;-70
2022/11/28 10:58:53;;;;;;;;;;;11.50;99.90;;;;;;7334874;19;109645;-70
2022/11/28 11:01:20;;;;;;;;;;;11.50;99.90;;;;;;7335784;19;108409;-70
2022/11/28 11:03:48;;;;;;;;;;;11.60;99.90;;;;;;7334457;19;108426;-76
2022/11/28 11:06:14;;;;;;;;;;;11.50;99.90;;;;;;7330930;19;112170;-72
2022/11/28 11:08:41;;;;;;;;;;;11.60;99.90;;;;;;7339632;19;108623;-74
2022/11/28 11:11:29;;;;;;;;;;;11.60;99.90;;;;;;7333329;19;109990;-73
2022/11/28 11:13:59;;;;;;;;;;;11.60;99.90;;;;;;7329968;19;109796;-75
2022/11/28 11:16:45;;;;;;;;;;;11.70;99.90;;;;;;7328155;19;108701;-71
2022/11/28 11:19:22;;;;;;;;;;;11.70;99.90;;;;;;7328351;19;109456;-74
2022/11/28 11:21:58;;;;;;;;;;;11.70;99.90;;;;;;7330319;19;108368;-72
2022/11/28 11:24:25;;;;;;;;;;;11.70;99.90;;;;;;7334149;19;109318;-77
2022/11/28 11:26:52;;;;;;;;;;;11.70;99.90;;;;;;7334777;19;110205;-73
2022/11/28 11:29:28;;;;;;;;;;;11.70;99.90;;;;;;7336139;19;108713;-69
2022/11/28 11:31:57;;;;;;;;;;;11.70;99.90;;;;;;7346916;19;110080;-69
2022/11/28 11:34:26;;;;;;;;;;;11.80;99.90;;;;;;7336934;19;109658;-70
2022/11/28 11:37:13;;;;;;;;;;;11.80;99.90;;;;;;7340628;19;110425;-70
2022/11/28 11:39:45;;;;;;;;;;;11.70;99.90;;;;;;7341489;19;109831;-71
2022/11/28 11:42:18;;;;;;;;;;;11.80;99.90;;;;;;7340994;19;108437;-70
2022/11/28 11:44:45;;;;;;;;;;;11.80;99.90;;;;;;7343076;19;108595;-70
2022/11/28 11:47:12;;;;;;;;;;;11.80;99.90;;;;;;7339495;19;109198;-71
2022/11/28 11:49:41;;;;;;;;;;;11.80;99.90;;;;;;7341378;19;108331;-70
2022/11/28 11:52:11;;;;;;;;;;;11.80;99.90;;;;;;7341702;19;109077;-69
2022/11/28 11:54:51;;;;;;;;;;;11.80;99.90;;;;;;7348982;19;110182;-70
2022/11/28 11:57:19;;;;;;;;;;;11.90;99.90;;;;;;7338827;19;110304;-71
2022/11/28 12:00:08;;;;;;;;;;;11.90;99.90;;;;;;7340068;19;110290;-70
2022/11/28 12:02:45;;;;;;;;;;;11.90;99.90;;;;;;7342477;19;114253;-70
2022/11/28 12:05:16;;;;;;;;;;;12.00;99.90;;;;;;7340309;19;109647;-70
2022/11/28 12:07:49;;;;;;;;;;;12.00;99.90;;;;;;7341581;19;109676;-70
2022/11/28 12:10:20;;;;;;;;;;;12.10;99.90;;;;;;7337453;19;108377;-69
2022/11/28 12:12:47;;;;;;;;;;;12.20;99.90;;;;;;7340892;19;110465;-70
2022/11/28 12:15:16;;;;;;;;;;;12.20;99.90;;;;;;7340320;19;110147;-69
2022/11/28 12:17:43;;;;;;;;;;;12.20;99.90;;;;;;7346485;19;109275;-70
2022/11/28 12:20:31;;;;;;;;;;;12.20;99.90;;;;;;7339098;19;113528;-69
2022/11/28 12:23:21;;;;;;;;;;;12.20;99.90;;;;;;7340051;19;108741;-70
2022/11/28 12:25:53;;;;;;;;;;;12.20;99.90;;;;;;7337639;19;111390;-69
2022/11/28 12:28:20;;;;;;;;;;;12.30;99.90;;;;;;7341195;19;110353;-70
2022/11/28 12:30:59;;;;;;;;;;;12.40;99.90;;;;;;7339606;19;109641;-70
2022/11/28 12:33:43;;;;;;;;;;;12.30;99.90;;;;;;7338354;19;109062;-70
2022/11/28 12:36:13;;;;;;;;;;;12.40;99.90;;;;;;7339024;19;112017;-69
2022/11/28 12:38:54;;;;;;;;;;;12.40;99.90;;;;;;7344752;19;109211;-69
2022/11/28 12:41:38;;;;;;;;;;;12.40;99.90;;;;;;7337948;19;109868;-69
2022/11/28 12:44:25;;;;;;;;;;;12.40;99.90;;;;;;7339965;19;110095;-70
2022/11/28 12:47:07;;;;;;;;;;;12.40;99.90;;;;;;7337733;19;108793;-69
2022/11/28 12:49:36;;;;;;;;;;;12.50;99.90;;;;;;7340023;19;108980;-69
2022/11/28 12:52:03;;;;;;;;;;;12.50;99.90;;;;;;7341028;19;109316;-69
2022/11/28 12:54:36;;;;;;;;;;;12.60;99.90;;;;;;7340505;19;110708;-69
2022/11/28 12:57:06;;;;;;;;;;;12.70;99.90;;;;;;7336858;19;112490;-69
2022/11/28 12:59:38;;;;;;;;;;;12.80;99.90;;;;;;7339557;19;108440;-69
2022/11/28 13:02:25;;;;;;;;;;;12.80;99.90;;;;;;7344232;19;109421;-69
2022/11/28 13:05:04;;;;;;;;;;;12.80;99.90;;;;;;7339090;19;108768;-68
2022/11/28 13:07:34;;;;;;;;;;;12.80;99.90;;;;;;7338494;19;108844;-67
2022/11/28 13:10:24;;;;;;;;;;;12.80;99.90;;;;;;7338438;19;110864;-71
2022/11/28 13:13:02;;;;;;;;;;;12.80;99.90;;;;;;7337996;19;110310;-68
2022/11/28 13:15:39;;;;;;;;;;;12.80;99.90;;;;;;7336332;19;109185;-68
2022/11/28 13:18:12;;;;;;;;;;;12.80;99.90;;;;;;7336728;19;110218;-68
2022/11/28 13:20:51;;;;;;;;;;;12.80;99.90;;;;;;7339389;19;108469;-68
2022/11/28 13:23:41;;;;;;;;;;;12.70;99.90;;;;;;7336570;19;108339;-68
2022/11/28 13:26:34;;;;;;;;;;;12.70;99.90;;;;;;7335772;19;110256;-68
2022/11/28 13:29:13;;;;;;;;;;;12.70;99.90;;;;;;7334531;19;108975;-68
2022/11/28 13:31:43;;;;;;;;;;;12.70;99.90;;;;;;7330664;19;110235;-68
2022/11/28 13:34:16;;;;;;;;;;;12.70;99.90;;;;;;7330906;19;109094;-68
2022/11/28 13:36:52;;;;;;;;;;;12.70;99.90;;;;;;7334850;19;109058;-68
2022/11/28 13:39:48;;;;;;;;;;;12.70;99.90;;;;;;7332463;19;110103;-68
2022/11/28 13:42:34;;;;;;;;;;;12.80;99.90;;;;;;7334881;19;109277;-69
2022/11/28 13:45:23;;;;;;;;;;;12.80;99.90;;;;;;7333595;19;110365;-69
2022/11/28 13:47:59;;;;;;;;;;;12.80;99.90;;;;;;7332842;19;110138;-68
2022/11/28 13:50:32;;;;;;;;;;;12.90;99.90;;;;;;7337719;19;110394;-68
2022/11/28 13:53:00;;;;;;;;;;;12.90;99.90;;;;;;7330818;19;109902;-68
2022/11/28 13:55:39;;;;;;;;;;;13.00;99.90;;;;;;7333257;19;109834;-68
2022/11/28 13:58:37;;;;;;;;;;;13.00;99.90;;;;;;7331130;19;109570;-68
2022/11/28 14:01:12;;;;;;;;;;;13.10;99.90;;;;;;7333920;19;109844;-68
2022/11/28 14:03:47;;;;;;;;;;;13.00;99.90;;;;;;7333015;19;108848;-69
2022/11/28 14:06:25;;;;;;;;;;;13.00;99.90;;;;;;7331721;19;109741;-68
2022/11/28 14:09:00;;;;;;;;;;;13.00;99.90;;;;;;7331511;19;109394;-70
2022/11/28 14:11:33;;;;;;;;;;;13.00;99.90;;;;;;7330080;19;109332;-69
2022/11/28 14:14:15;;;;;;;;;;;13.00;99.90;;;;;;7336335;19;110728;-70
2022/11/28 14:16:54;;;;;;;;;;;12.90;99.90;;;;;;7333129;19;108600;-69
2022/11/28 14:19:50;;;;;;;;;;;12.90;99.90;;;;;;7331774;19;108656;-69
2022/11/28 14:22:20;;;;;;;;;;;12.80;99.90;;;;;;7327125;19;110942;-71
2022/11/28 14:25:00;;;;;;;;;;;12.80;99.90;;;;;;7332663;19;108824;-70
2022/11/28 14:27:35;;;;;;;;;;;12.70;99.90;;;;;;7329971;19;109213;-70
2022/11/28 14:30:02;;;;;;;;;;;12.70;99.90;;;;;;7334288;19;109142;-70